sensor_id;sensor_type;location;lat;lon;timestamp;pressure;altitude;pressure_sealevel;temperature;humidity
46955;BME280;32708;51.212;6.788;2023-12-07T00:01:19;101420.03;;;4.63;100.00
46955;BME280;32708;51.212;6.788;2023-12-07T00:03:45;101425.22;;;4.64;100.00
46955;BME280;32708;51.212;6.788;2023-12-07T00:06:12;101424.09;;;4.60;100.00
46955;BME280;32708;51.212;6.788;2023-12-07T00:08:47;101424.88;;;4.56;100.00
46955;BME280;32708;51.212;6.788;2023-12-07T00:11:13;101426.13;;;4.38;100.00
46955;BME280;32708;51.212;6.788;2023-12-07T00:13:40;101426.16;;;4.43;100.00
46955;BME280;32708;51.212;6.788;2023-12-07T00:16:06;101422.97;;;4.51;100.00
46955;BME280;32708;51.212;6.788;2023-12-07T00:18:32;101424.06;;;4.55;100.00
46955;BME280;32708;51.212;6.788;2023-12-07T00:20:59;101419.69;;;4.49;100.00
46955;BME280;32708;51.212;6.788;2023-12-07T00:23:25;101418.59;;;4.45;100.00
46955;BME280;32708;51.212;6.788;2023-12-07T00:25:51;101429.72;;;4.54;100.00
46955;BME280;32708;51.212;6.788;2023-12-07T00:28:18;101415.28;;;4.33;100.00
46955;BME280;32708;51.212;6.788;2023-12-07T00:30:44;101421.81;;;4.42;100.00
46955;BME280;32708;51.212;6.788;2023-12-07T00:33:10;101406.69;;;4.46;100.00
46955;BME280;32708;51.212;6.788;2023-12-07T00:35:36;101405.03;;;4.40;100.00
46955;BME280;32708;51.212;6.788;2023-12-07T00:38:03;101405.59;;;4.05;100.00
46955;BME280;32708;51.212;6.788;2023-12-07T00:40:29;101418.25;;;3.99;100.00
46955;BME280;32708;51.212;6.788;2023-12-07T00:42:55;101410.88;;;4.22;100.00
46955;BME280;32708;51.212;6.788;2023-12-07T00:45:21;101420.16;;;3.99;100.00
46955;BME280;32708;51.212;6.788;2023-12-07T00:47:48;101415.66;;;4.09;100.00
46955;BME280;32708;51.212;6.788;2023-12-07T00:50:14;101420.97;;;3.99;100.00
46955;BME280;32708;51.212;6.788;2023-12-07T00:52:41;101428.03;;;4.00;100.00
46955;BME280;32708;51.212;6.788;2023-12-07T00:55:07;101432.59;;;3.68;100.00
46955;BME280;32708;51.212;6.788;2023-12-07T00:57:33;101434.94;;;3.86;100.00
46955;BME280;32708;51.212;6.788;2023-12-07T01:00:00;101420.41;;;3.97;100.00
46955;BME280;32708;51.212;6.788;2023-12-07T01:02:26;101428.72;;;3.58;100.00
46955;BME280;32708;51.212;6.788;2023-12-07T01:04:53;101438.09;;;4.10;100.00
46955;BME280;32708;51.212;6.788;2023-12-07T01:07:19;101425.47;;;3.89;100.00
46955;BME280;32708;51.212;6.788;2023-12-07T01:09:45;101424.41;;;4.22;100.00
46955;BME280;32708;51.212;6.788;2023-12-07T01:12:12;101422.88;;;4.36;100.00
46955;BME280;32708;51.212;6.788;2023-12-07T01:14:38;101425.56;;;4.36;100.00
46955;BME280;32708;51.212;6.788;2023-12-07T01:17:04;101416.94;;;4.39;100.00
46955;BME280;32708;51.212;6.788;2023-12-07T01:19:30;101429.69;;;3.74;100.00
46955;BME280;32708;51.212;6.788;2023-12-07T01:21:57;101428.84;;;4.01;100.00
46955;BME280;32708;51.212;6.788;2023-12-07T01:24:23;101434.97;;;3.64;100.00
46955;BME280;32708;51.212;6.788;2023-12-07T01:26:49;101431.31;;;3.48;100.00
46955;BME280;32708;51.212;6.788;2023-12-07T01:29:16;101433.94;;;3.65;100.00
46955;BME280;32708;51.212;6.788;2023-12-07T01:31:42;101439.38;;;3.43;100.00
46955;BME280;32708;51.212;6.788;2023-12-07T01:34:08;101439.25;;;3.33;100.00
46955;BME280;32708;51.212;6.788;2023-12-07T01:36:35;101434.88;;;3.27;100.00
46955;BME280;32708;51.212;6.788;2023-12-07T01:39:01;101443.44;;;3.46;100.00
46955;BME280;32708;51.212;6.788;2023-12-07T01:41:27;101444.34;;;3.56;100.00
46955;BME280;32708;51.212;6.788;2023-12-07T01:43:54;101450.28;;;3.85;100.00
46955;BME280;32708;51.212;6.788;2023-12-07T01:46:20;101442.25;;;3.64;100.00
46955;BME280;32708;51.212;6.788;2023-12-07T01:48:47;101449.72;;;3.51;100.00
46955;BME280;32708;51.212;6.788;2023-12-07T01:51:18;101441.03;;;3.49;100.00
46955;BME280;32708;51.212;6.788;2023-12-07T01:53:47;101448.22;;;3.39;100.00
46955;BME280;32708;51.212;6.788;2023-12-07T01:56:15;101451.41;;;3.57;100.00
46955;BME280;32708;51.212;6.788;2023-12-07T01:58:43;101449.72;;;3.51;100.00
46955;BME280;32708;51.212;6.788;2023-12-07T02:01:09;101455.97;;;3.84;100.00
46955;BME280;32708;51.212;6.788;2023-12-07T02:03:40;101448.25;;;3.98;100.00
46955;BME280;32708;51.212;6.788;2023-12-07T02:06:07;101449.84;;;3.94;100.00
46955;BME280;32708;51.212;6.788;2023-12-07T02:08:35;101443.63;;;3.93;100.00
46955;BME280;32708;51.212;6.788;2023-12-07T02:11:01;101441.25;;;4.02;100.00
46955;BME280;32708;51.212;6.788;2023-12-07T02:13:28;101447.78;;;4.06;100.00
46955;BME280;32708;51.212;6.788;2023-12-07T02:15:57;101454.16;;;4.27;100.00
46955;BME280;32708;51.212;6.788;2023-12-07T02:18:40;101456.09;;;3.99;100.00
46955;BME280;32708;51.212;6.788;2023-12-07T02:21:38;101447.22;;;4.04;100.00
46955;BME280;32708;51.212;6.788;2023-12-07T02:24:09;101451.44;;;4.22;100.00
46955;BME280;32708;51.212;6.788;2023-12-07T02:26:38;101445.97;;;4.17;100.00
46955;BME280;32708;51.212;6.788;2023-12-07T02:29:05;101458.09;;;4.14;100.00
46955;BME280;32708;51.212;6.788;2023-12-07T02:31:31;101464.78;;;4.06;100.00
46955;BME280;32708;51.212;6.788;2023-12-07T02:33:58;101457.34;;;4.19;100.00
46955;BME280;32708;51.212;6.788;2023-12-07T02:36:28;101470.66;;;3.93;100.00
46955;BME280;32708;51.212;6.788;2023-12-07T02:39:00;101474.63;;;4.18;100.00
46955;BME280;32708;51.212;6.788;2023-12-07T02:41:32;101478.97;;;4.19;100.00
46955;BME280;32708;51.212;6.788;2023-12-07T02:43:59;101474.78;;;4.38;100.00
46955;BME280;32708;51.212;6.788;2023-12-07T02:46:26;101474.28;;;4.09;100.00
46955;BME280;32708;51.212;6.788;2023-12-07T02:48:52;101485.09;;;4.09;100.00
46955;BME280;32708;51.212;6.788;2023-12-07T02:51:19;101475.09;;;4.09;100.00
46955;BME280;32708;51.212;6.788;2023-12-07T02:53:45;101466.94;;;4.04;100.00
46955;BME280;32708;51.212;6.788;2023-12-07T02:56:11;101463.03;;;3.90;100.00
46955;BME280;32708;51.212;6.788;2023-12-07T02:58:37;101467.91;;;3.88;100.00
46955;BME280;32708;51.212;6.788;2023-12-07T03:01:04;101465.38;;;4.08;100.00
46955;BME280;32708;51.212;6.788;2023-12-07T03:03:30;101468.06;;;4.08;100.00
46955;BME280;32708;51.212;6.788;2023-12-07T03:05:56;101456.84;;;4.27;100.00
46955;BME280;32708;51.212;6.788;2023-12-07T03:08:22;101456.19;;;4.09;100.00
46955;BME280;32708;51.212;6.788;2023-12-07T03:10:48;101456.63;;;4.33;100.00
46955;BME280;32708;51.212;6.788;2023-12-07T03:13:15;101452.66;;;4.46;100.00
46955;BME280;32708;51.212;6.788;2023-12-07T03:15:41;101447.06;;;4.21;100.00
46955;BME280;32708;51.212;6.788;2023-12-07T03:18:07;101447.28;;;4.09;100.00
46955;BME280;32708;51.212;6.788;2023-12-07T03:20:34;101443.06;;;4.23;100.00
46955;BME280;32708;51.212;6.788;2023-12-07T03:23:00;101447.06;;;4.21;100.00
46955;BME280;32708;51.212;6.788;2023-12-07T03:25:26;101452.84;;;3.97;100.00
46955;BME280;32708;51.212;6.788;2023-12-07T03:27:52;101453.28;;;4.16;100.00
46955;BME280;32708;51.212;6.788;2023-12-07T03:30:18;101447.34;;;4.19;100.00
46955;BME280;32708;51.212;6.788;2023-12-07T03:32:45;101451.72;;;4.25;100.00
46955;BME280;32708;51.212;6.788;2023-12-07T03:35:11;101447.78;;;4.43;100.00
46955;BME280;32708;51.212;6.788;2023-12-07T03:37:37;101438.56;;;4.39;100.00
46955;BME280;32708;51.212;6.788;2023-12-07T03:40:03;101435.56;;;4.35;100.00
46955;BME280;32708;51.212;6.788;2023-12-07T03:42:31;101442.97;;;4.55;100.00
46955;BME280;32708;51.212;6.788;2023-12-07T03:44:57;101437.06;;;4.58;100.00
46955;BME280;32708;51.212;6.788;2023-12-07T03:47:23;101438.97;;;4.63;100.00
46955;BME280;32708;51.212;6.788;2023-12-07T03:49:49;101448.16;;;4.62;100.00
46955;BME280;32708;51.212;6.788;2023-12-07T03:52:15;101440.91;;;4.67;100.00
46955;BME280;32708;51.212;6.788;2023-12-07T03:54:42;101441.44;;;4.69;100.00
46955;BME280;32708;51.212;6.788;2023-12-07T03:57:08;101445.88;;;4.86;100.00
46955;BME280;32708;51.212;6.788;2023-12-07T03:59:36;101441.78;;;4.83;100.00
46955;BME280;32708;51.212;6.788;2023-12-07T04:02:02;101436.38;;;4.83;100.00
46955;BME280;32708;51.212;6.788;2023-12-07T04:04:29;101433.16;;;4.91;100.00
46955;BME280;32708;51.212;6.788;2023-12-07T04:06:55;101430.78;;;5.05;100.00
46955;BME280;32708;51.212;6.788;2023-12-07T04:09:21;101436.66;;;4.39;100.00
46955;BME280;32708;51.212;6.788;2023-12-07T04:11:48;101449.59;;;4.75;100.00
46955;BME280;32708;51.212;6.788;2023-12-07T04:14:14;101442.09;;;4.87;100.00
46955;BME280;32708;51.212;6.788;2023-12-07T04:16:41;101443.69;;;4.83;100.00
46955;BME280;32708;51.212;6.788;2023-12-07T04:19:07;101445.53;;;4.72;100.00
46955;BME280;32708;51.212;6.788;2023-12-07T04:21:33;101446.97;;;4.90;100.00
46955;BME280;32708;51.212;6.788;2023-12-07T04:24:00;101453.72;;;4.87;100.00
46955;BME280;32708;51.212;6.788;2023-12-07T04:26:26;101455.44;;;5.09;100.00
46955;BME280;32708;51.212;6.788;2023-12-07T04:28:52;101450.50;;;4.95;100.00
46955;BME280;32708;51.212;6.788;2023-12-07T04:31:18;101462.63;;;4.83;100.00
46955;BME280;32708;51.212;6.788;2023-12-07T04:33:44;101467.25;;;4.92;100.00
46955;BME280;32708;51.212;6.788;2023-12-07T04:36:10;101467.09;;;5.19;100.00
46955;BME280;32708;51.212;6.788;2023-12-07T04:38:36;101462.25;;;5.21;100.00
46955;BME280;32708;51.212;6.788;2023-12-07T04:41:03;101459.31;;;5.33;100.00
46955;BME280;32708;51.212;6.788;2023-12-07T04:43:29;101461.66;;;5.09;100.00
46955;BME280;32708;51.212;6.788;2023-12-07T04:45:55;101467.09;;;5.19;100.00
46955;BME280;32708;51.212;6.788;2023-12-07T04:48:21;101470.09;;;5.18;100.00
46955;BME280;32708;51.212;6.788;2023-12-07T04:50:47;101468.78;;;5.31;100.00
46955;BME280;32708;51.212;6.788;2023-12-07T04:53:13;101473.09;;;5.21;100.00
46955;BME280;32708;51.212;6.788;2023-12-07T04:55:40;101470.56;;;5.05;100.00
46955;BME280;32708;51.212;6.788;2023-12-07T04:58:06;101466.56;;;5.17;100.00
46955;BME280;32708;51.212;6.788;2023-12-07T05:00:32;101477.38;;;5.07;100.00
46955;BME280;32708;51.212;6.788;2023-12-07T05:02:58;101476.84;;;5.15;100.00
46955;BME280;32708;51.212;6.788;2023-12-07T05:05:24;101476.38;;;5.34;100.00
46955;BME280;32708;51.212;6.788;2023-12-07T05:07:50;101479.88;;;5.34;100.00
46955;BME280;32708;51.212;6.788;2023-12-07T05:10:16;101488.31;;;5.43;100.00
46955;BME280;32708;51.212;6.788;2023-12-07T05:12:42;101479.63;;;5.31;100.00
46955;BME280;32708;51.212;6.788;2023-12-07T05:15:09;101484.47;;;5.29;100.00
46955;BME280;32708;51.212;6.788;2023-12-07T05:17:35;101490.13;;;5.17;100.00
46955;BME280;32708;51.212;6.788;2023-12-07T05:20:01;101487.47;;;5.32;100.00
46955;BME280;32708;51.212;6.788;2023-12-07T05:22:28;101480.69;;;5.30;100.00
46955;BME280;32708;51.212;6.788;2023-12-07T05:24:55;101491.00;;;5.38;100.00
46955;BME280;32708;51.212;6.788;2023-12-07T05:27:21;101482.84;;;5.28;100.00
46955;BME280;32708;51.212;6.788;2023-12-07T05:29:47;101502.94;;;5.37;100.00
46955;BME280;32708;51.212;6.788;2023-12-07T05:32:13;101501.06;;;5.47;100.00
46955;BME280;32708;51.212;6.788;2023-12-07T05:34:39;101498.19;;;5.07;100.00
46955;BME280;32708;51.212;6.788;2023-12-07T05:37:05;101503.75;;;5.37;100.00
46955;BME280;32708;51.212;6.788;2023-12-07T05:39:31;101492.41;;;5.50;100.00
46955;BME280;32708;51.212;6.788;2023-12-07T05:41:57;101492.19;;;5.67;100.00
46955;BME280;32708;51.212;6.788;2023-12-07T05:44:24;101484.03;;;5.52;100.00
46955;BME280;32708;51.212;6.788;2023-12-07T05:46:50;101485.97;;;5.72;100.00
46955;BME280;32708;51.212;6.788;2023-12-07T05:49:16;101480.81;;;5.65;100.00
46955;BME280;32708;51.212;6.788;2023-12-07T05:51:42;101470.47;;;5.47;100.00
46955;BME280;32708;51.212;6.788;2023-12-07T05:54:09;101475.00;;;5.31;100.00
46955;BME280;32708;51.212;6.788;2023-12-07T05:56:35;101478.25;;;5.33;100.00
46955;BME280;32708;51.212;6.788;2023-12-07T05:59:01;101481.00;;;5.48;100.00
46955;BME280;32708;51.212;6.788;2023-12-07T06:01:27;101485.91;;;5.57;100.00
46955;BME280;32708;51.212;6.788;2023-12-07T06:03:54;101472.88;;;5.38;100.00
46955;BME280;32708;51.212;6.788;2023-12-07T06:06:20;101473.66;;;5.34;100.00
46955;BME280;32708;51.212;6.788;2023-12-07T06:08:47;101474.69;;;5.17;100.00
46955;BME280;32708;51.212;6.788;2023-12-07T06:11:13;101477.94;;;5.19;100.00
46955;BME280;32708;51.212;6.788;2023-12-07T06:13:39;101476.34;;;5.23;100.00
46955;BME280;32708;51.212;6.788;2023-12-07T06:16:06;101471.38;;;5.05;100.00
46955;BME280;32708;51.212;6.788;2023-12-07T06:18:47;101479.78;;;5.04;100.00
46955;BME280;32708;51.212;6.788;2023-12-07T06:21:14;101479.00;;;5.13;100.00
46955;BME280;32708;51.212;6.788;2023-12-07T06:23:40;101469.47;;;4.95;100.00
46955;BME280;32708;51.212;6.788;2023-12-07T06:26:07;101475.25;;;5.24;100.00
46955;BME280;32708;51.212;6.788;2023-12-07T06:28:34;101470.94;;;5.23;100.00
46955;BME280;32708;51.212;6.788;2023-12-07T06:31:09;101460.94;;;5.34;100.00
46955;BME280;32708;51.212;6.788;2023-12-07T06:33:35;101454.94;;;5.27;100.00
46955;BME280;32708;51.212;6.788;2023-12-07T06:36:02;101455.25;;;5.36;100.00
46955;BME280;32708;51.212;6.788;2023-12-07T06:38:31;101452.25;;;5.22;100.00
46955;BME280;32708;51.212;6.788;2023-12-07T06:40:57;101457.88;;;5.10;100.00
46955;BME280;32708;51.212;6.788;2023-12-07T06:43:24;101462.25;;;5.16;100.00
46955;BME280;32708;51.212;6.788;2023-12-07T06:45:51;101461.69;;;5.19;100.00
46955;BME280;32708;51.212;6.788;2023-12-07T06:48:17;101460.56;;;5.05;100.00
46955;BME280;32708;51.212;6.788;2023-12-07T06:50:44;101455.72;;;5.12;100.00
46955;BME280;32708;51.212;6.788;2023-12-07T06:53:10;101458.44;;;5.17;100.00
46955;BME280;32708;51.212;6.788;2023-12-07T06:55:36;101449.47;;;5.02;100.00
46955;BME280;32708;51.212;6.788;2023-12-07T06:58:02;101457.34;;;5.08;100.00
46955;BME280;32708;51.212;6.788;2023-12-07T07:00:29;101461.41;;;5.11;100.00
46955;BME280;32708;51.212;6.788;2023-12-07T07:02:55;101458.31;;;4.92;100.00
46955;BME280;32708;51.212;6.788;2023-12-07T07:05:22;101455.03;;;4.85;100.00
46955;BME280;32708;51.212;6.788;2023-12-07T07:07:48;101463.38;;;4.73;100.00
46955;BME280;32708;51.212;6.788;2023-12-07T07:10:17;101463.66;;;4.77;100.00
46955;BME280;32708;51.212;6.788;2023-12-07T07:12:43;101452.34;;;4.85;100.00
46955;BME280;32708;51.212;6.788;2023-12-07T07:15:09;101455.19;;;4.63;100.00
46955;BME280;32708;51.212;6.788;2023-12-07T07:17:38;101458.06;;;4.46;100.00
46955;BME280;32708;51.212;6.788;2023-12-07T07:20:05;101462.38;;;4.42;100.00
46955;BME280;32708;51.212;6.788;2023-12-07T07:22:32;101470.88;;;4.61;100.00
46955;BME280;32708;51.212;6.788;2023-12-07T07:24:58;101472.97;;;4.49;100.00
46955;BME280;32708;51.212;6.788;2023-12-07T07:27:25;101466.97;;;4.41;100.00
46955;BME280;32708;51.212;6.788;2023-12-07T07:29:51;101465.81;;;4.32;100.00
46955;BME280;32708;51.212;6.788;2023-12-07T07:32:18;101460.22;;;4.44;100.00
46955;BME280;32708;51.212;6.788;2023-12-07T07:34:44;101457.50;;;4.39;100.00
46955;BME280;32708;51.212;6.788;2023-12-07T07:37:10;101464.06;;;4.53;100.00
46955;BME280;32708;51.212;6.788;2023-12-07T07:39:37;101460.59;;;4.58;100.00
46955;BME280;32708;51.212;6.788;2023-12-07T07:42:03;101473.19;;;4.42;100.00
46955;BME280;32708;51.212;6.788;2023-12-07T07:44:30;101468.84;;;4.41;100.00
46955;BME280;32708;51.212;6.788;2023-12-07T07:46:56;101467.72;;;4.32;100.00
46955;BME280;32708;51.212;6.788;2023-12-07T07:49:23;101466.22;;;4.51;100.00
46955;BME280;32708;51.212;6.788;2023-12-07T07:51:50;101463.38;;;4.31;100.00
46955;BME280;32708;51.212;6.788;2023-12-07T07:54:17;101463.38;;;4.31;100.00
46955;BME280;32708;51.212;6.788;2023-12-07T07:56:43;101464.75;;;4.33;100.00
46955;BME280;32708;51.212;6.788;2023-12-07T07:59:10;101459.69;;;4.47;100.00
46955;BME280;32708;51.212;6.788;2023-12-07T08:01:37;101463.31;;;4.63;100.00
46955;BME280;32708;51.212;6.788;2023-12-07T08:04:03;101456.97;;;4.42;100.00
46955;BME280;32708;51.212;6.788;2023-12-07T08:06:29;101454.81;;;4.44;100.00
46955;BME280;32708;51.212;6.788;2023-12-07T08:08:55;101460.75;;;4.41;100.00
46955;BME280;32708;51.212;6.788;2023-12-07T08:11:22;101466.47;;;4.50;100.00
46955;BME280;32708;51.212;6.788;2023-12-07T08:13:48;101472.56;;;4.30;100.00
46955;BME280;32708;51.212;6.788;2023-12-07T08:16:16;101468.78;;;4.31;100.00
46955;BME280;32708;51.212;6.788;2023-12-07T08:18:42;101470.63;;;4.25;100.00
46955;BME280;32708;51.212;6.788;2023-12-07T08:21:18;101470.25;;;4.11;100.00
46955;BME280;32708;51.212;6.788;2023-12-07T08:23:44;101479.91;;;4.02;100.00
46955;BME280;32708;51.212;6.788;2023-12-07T08:26:11;101479.16;;;4.12;100.00
46955;BME280;32708;51.212;6.788;2023-12-07T08:28:40;101483.28;;;4.14;100.00
46955;BME280;32708;51.212;6.788;2023-12-07T08:31:10;101487.97;;;4.29;100.00
46955;BME280;32708;51.212;6.788;2023-12-07T08:33:37;101473.97;;;4.37;100.00
46955;BME280;32708;51.212;6.788;2023-12-07T08:36:08;101468.25;;;4.29;100.00
46955;BME280;32708;51.212;6.788;2023-12-07T08:38:34;101472.69;;;4.45;100.00
46955;BME280;32708;51.212;6.788;2023-12-07T08:41:01;101468.09;;;4.46;100.00
46955;BME280;32708;51.212;6.788;2023-12-07T08:43:27;101472.94;;;4.44;100.00
46955;BME280;32708;51.212;6.788;2023-12-07T08:45:56;101470.84;;;4.56;100.00
46955;BME280;32708;51.212;6.788;2023-12-07T08:48:22;101473.19;;;4.42;100.00
46955;BME280;32708;51.212;6.788;2023-12-07T08:50:48;101465.44;;;4.19;100.00
46955;BME280;32708;51.212;6.788;2023-12-07T08:53:14;101472.59;;;4.35;100.00
46955;BME280;32708;51.212;6.788;2023-12-07T08:55:41;101478.25;;;4.33;100.00
46955;BME280;32708;51.212;6.788;2023-12-07T08:58:07;101478.09;;;4.13;100.00
46955;BME280;32708;51.212;6.788;2023-12-07T09:00:33;101481.88;;;4.44;100.00
46955;BME280;32708;51.212;6.788;2023-12-07T09:02:59;101475.06;;;4.36;100.00
46955;BME280;32708;51.212;6.788;2023-12-07T09:05:29;101470.03;;;4.18;100.00
46955;BME280;32708;51.212;6.788;2023-12-07T09:07:56;101467.19;;;4.35;100.00
46955;BME280;32708;51.212;6.788;2023-12-07T09:10:23;101473.50;;;4.13;100.00
46955;BME280;32708;51.212;6.788;2023-12-07T09:12:49;101479.47;;;4.16;100.00
46955;BME280;32708;51.212;6.788;2023-12-07T09:15:16;101478.47;;;4.27;100.00
46955;BME280;32708;51.212;6.788;2023-12-07T09:17:42;101476.72;;;4.10;100.00
46955;BME280;32708;51.212;6.788;2023-12-07T09:20:10;101473.03;;;3.90;100.00
46955;BME280;32708;51.212;6.788;2023-12-07T09:22:44;101471.53;;;3.72;100.00
46955;BME280;32708;51.212;6.788;2023-12-07T09:25:12;101452.03;;;3.70;100.00
46955;BME280;32708;51.212;6.788;2023-12-07T09:27:39;101456.16;;;3.77;100.00
46955;BME280;32708;51.212;6.788;2023-12-07T09:30:10;101466.94;;;4.04;100.00
46955;BME280;32708;51.212;6.788;2023-12-07T09:32:41;101464.50;;;4.03;100.00
46955;BME280;32708;51.212;6.788;2023-12-07T09:35:10;101466.94;;;4.04;100.00
46955;BME280;32708;51.212;6.788;2023-12-07T09:37:54;101461.63;;;4.52;100.00
46955;BME280;32708;51.212;6.788;2023-12-07T09:40:22;101458.03;;;4.36;100.00
46955;BME280;32708;51.212;6.788;2023-12-07T09:42:51;101444.63;;;4.19;100.00
46955;BME280;32708;51.212;6.788;2023-12-07T09:45:19;101438.13;;;4.15;100.00
46955;BME280;32708;51.212;6.788;2023-12-07T09:47:52;101441.16;;;4.24;100.00
46955;BME280;32708;51.212;6.788;2023-12-07T09:50:21;101449.50;;;4.17;100.00
46955;BME280;32708;51.212;6.788;2023-12-07T09:52:53;101444.25;;;4.05;100.00
46955;BME280;32708;51.212;6.788;2023-12-07T09:55:20;101441.44;;;3.90;100.00
46955;BME280;32708;51.212;6.788;2023-12-07T09:57:49;101433.56;;;4.21;100.00
46955;BME280;32708;51.212;6.788;2023-12-07T10:00:17;101427.56;;;4.51;100.00
46955;BME280;32708;51.212;6.788;2023-12-07T10:02:46;101417.16;;;3.95;100.00
46955;BME280;32708;51.212;6.788;2023-12-07T10:05:14;101436.13;;;4.00;100.00
46955;BME280;32708;51.212;6.788;2023-12-07T10:07:47;101437.19;;;3.99;100.00
46955;BME280;32708;51.212;6.788;2023-12-07T10:10:15;101431.91;;;3.82;100.00
46955;BME280;32708;51.212;6.788;2023-12-07T10:12:56;101427.19;;;3.68;100.00
46955;BME280;32708;51.212;6.788;2023-12-07T10:15:25;101428.84;;;4.01;100.00
46955;BME280;32708;51.212;6.788;2023-12-07T10:17:56;101419.91;;;4.00;100.00
46955;BME280;32708;51.212;6.788;2023-12-07T10:20:27;101422.28;;;4.29;100.00
46955;BME280;32708;51.212;6.788;2023-12-07T10:23:07;101418.38;;;4.52;100.00
46955;BME280;32708;51.212;6.788;2023-12-07T10:25:41;101412.69;;;4.53;100.00
46955;BME280;32708;51.212;6.788;2023-12-07T10:28:09;101390.78;;;4.55;100.00
46955;BME280;32708;51.212;6.788;2023-12-07T10:30:44;101382.91;;;4.43;100.00
46955;BME280;32708;51.212;6.788;2023-12-07T10:33:12;101390.53;;;4.14;100.00
46955;BME280;32708;51.212;6.788;2023-12-07T10:35:40;101391.66;;;4.18;100.00
46955;BME280;32708;51.212;6.788;2023-12-07T10:38:10;101389.41;;;4.05;100.00
46955;BME280;32708;51.212;6.788;2023-12-07T10:40:37;101392.41;;;4.08;100.00
46955;BME280;32708;51.212;6.788;2023-12-07T10:43:08;101386.13;;;4.40;100.00
46955;BME280;32708;51.212;6.788;2023-12-07T10:45:36;101379.97;;;4.07;100.00
46955;BME280;32708;51.212;6.788;2023-12-07T10:48:09;101365.75;;;4.22;100.00
46955;BME280;32708;51.212;6.788;2023-12-07T10:50:41;101360.69;;;4.36;100.00
46955;BME280;32708;51.212;6.788;2023-12-07T10:53:17;101351.03;;;4.50;100.00
46955;BME280;32708;51.212;6.788;2023-12-07T10:56:00;101335.97;;;4.17;100.00
46955;BME280;32708;51.212;6.788;2023-12-07T10:58:27;101341.38;;;4.17;100.00
46955;BME280;32708;51.212;6.788;2023-12-07T11:00:54;101333.22;;;4.12;100.00
46955;BME280;32708;51.212;6.788;2023-12-07T11:03:21;101338.50;;;3.92;100.00
46955;BME280;32708;51.212;6.788;2023-12-07T11:05:49;101341.44;;;3.85;100.00
46955;BME280;32708;51.212;6.788;2023-12-07T11:08:39;101326.78;;;3.76;100.00
46955;BME280;32708;51.212;6.788;2023-12-07T11:11:35;101319.41;;;4.03;100.00
46955;BME280;32708;51.212;6.788;2023-12-07T11:14:09;101303.34;;;4.34;100.00
46955;BME280;32708;51.212;6.788;2023-12-07T11:16:42;101302.97;;;4.78;100.00
46955;BME280;32708;51.212;6.788;2023-12-07T11:22:10;101290.47;;;4.61;100.00
46955;BME280;32708;51.212;6.788;2023-12-07T11:24:36;101288.59;;;4.62;100.00
46955;BME280;32708;51.212;6.788;2023-12-07T11:27:03;101279.75;;;4.19;100.00
46955;BME280;32708;51.212;6.788;2023-12-07T11:29:31;101272.00;;;4.33;100.00
46955;BME280;32708;51.212;6.788;2023-12-07T11:32:02;101276.38;;;4.44;100.00
46955;BME280;32708;51.212;6.788;2023-12-07T11:34:40;101267.41;;;4.38;100.00
46955;BME280;32708;51.212;6.788;2023-12-07T11:37:11;101264.19;;;4.36;100.00
46955;BME280;32708;51.212;6.788;2023-12-07T11:39:40;101255.81;;;4.43;100.00
46955;BME280;32708;51.212;6.788;2023-12-07T11:42:18;101252.91;;;4.75;100.00
46955;BME280;32708;51.212;6.788;2023-12-07T11:44:48;101249.84;;;4.41;100.00
46955;BME280;32708;51.212;6.788;2023-12-07T11:47:20;101237.50;;;3.98;100.00
46955;BME280;32708;51.212;6.788;2023-12-07T11:49:47;101254.16;;;4.42;100.00
46955;BME280;32708;51.212;6.788;2023-12-07T11:54:43;101249.72;;;4.10;100.00
46955;BME280;32708;51.212;6.788;2023-12-07T11:57:09;101244.25;;;4.58;100.00
46955;BME280;32708;51.212;6.788;2023-12-07T11:59:35;101244.41;;;4.31;100.00
46955;BME280;32708;51.212;6.788;2023-12-07T12:02:02;101237.72;;;4.44;100.00
46955;BME280;32708;51.212;6.788;2023-12-07T12:04:28;101234.91;;;4.28;100.00
46955;BME280;32708;51.212;6.788;2023-12-07T12:06:54;101235.22;;;4.32;100.00
46955;BME280;32708;51.212;6.788;2023-12-07T12:09:23;101229.41;;;3.98;100.00
46955;BME280;32708;51.212;6.788;2023-12-07T12:11:50;101241.94;;;4.19;100.00
46955;BME280;32708;51.212;6.788;2023-12-07T12:14:17;101234.34;;;4.21;100.00
46955;BME280;32708;51.212;6.788;2023-12-07T12:16:46;101242.88;;;4.50;100.00
46955;BME280;32708;51.212;6.788;2023-12-07T12:19:13;101228.50;;;4.39;100.00
46955;BME280;32708;51.212;6.788;2023-12-07T12:21:42;101226.44;;;4.97;100.00
46955;BME280;32708;51.212;6.788;2023-12-07T12:24:11;101209.63;;;4.65;100.00
46955;BME280;32708;51.212;6.788;2023-12-07T12:26:41;101211.97;;;4.31;100.00
46955;BME280;32708;51.212;6.788;2023-12-07T12:29:09;101208.53;;;4.71;100.00
46955;BME280;32708;51.212;6.788;2023-12-07T12:31:35;101202.88;;;4.67;100.00
46955;BME280;32708;51.212;6.788;2023-12-07T12:34:02;101188.22;;;4.43;100.00
46955;BME280;32708;51.212;6.788;2023-12-07T12:36:29;101197.88;;;4.19;100.00
46955;BME280;32708;51.212;6.788;2023-12-07T12:38:55;101189.06;;;4.59;100.00
46955;BME280;32708;51.212;6.788;2023-12-07T12:41:22;101190.72;;;4.80;100.00
46955;BME280;32708;51.212;6.788;2023-12-07T12:43:51;101167.69;;;4.78;100.00
46955;BME280;32708;51.212;6.788;2023-12-07T12:46:18;101173.13;;;4.67;100.00
46955;BME280;32708;51.212;6.788;2023-12-07T12:49:01;101164.75;;;4.74;100.00
46955;BME280;32708;51.212;6.788;2023-12-07T12:51:29;101161.72;;;4.55;100.00
46955;BME280;32708;51.212;6.788;2023-12-07T12:54:00;101151.19;;;4.84;100.00
46955;BME280;32708;51.212;6.788;2023-12-07T12:56:27;101150.69;;;4.72;100.00
46955;BME280;32708;51.212;6.788;2023-12-07T12:58:54;101150.41;;;4.79;100.00